sensor_id;sensor_type;location;lat;lon;timestamp;temperature;humidity
9824;DHT22;4951;50.778;7.196;2023-12-29T00:02:17;9.60;1.00
9824;DHT22;4951;50.778;7.196;2023-12-29T00:05:37;9.60;1.00
9824;DHT22;4951;50.778;7.196;2023-12-29T00:08:28;9.70;1.00
9824;DHT22;4951;50.778;7.196;2023-12-29T00:11:38;9.70;1.00
9824;DHT22;4951;50.778;7.196;2023-12-29T00:14:40;9.60;1.00
9824;DHT22;4951;50.778;7.196;2023-12-29T00:17:35;9.60;1.00
9824;DHT22;4951;50.778;7.196;2023-12-29T00:20:31;9.50;1.00
9824;DHT22;4951;50.778;7.196;2023-12-29T00:23:15;9.60;1.00
9824;DHT22;4951;50.778;7.196;2023-12-29T00:26:16;9.60;1.00
9824;DHT22;4951;50.778;7.196;2023-12-29T00:29:03;9.60;40.10
9824;DHT22;4951;50.778;7.196;2023-12-29T00:31:52;9.60;99.90
9824;DHT22;4951;50.778;7.196;2023-12-29T00:37:12;9.70;1.00
9824;DHT22;4951;50.778;7.196;2023-12-29T00:40:14;9.70;1.00
9824;DHT22;4951;50.778;7.196;2023-12-29T00:42:49;9.80;1.00
9824;DHT22;4951;50.778;7.196;2023-12-29T00:45:24;9.80;1.00
9824;DHT22;4951;50.778;7.196;2023-12-29T00:47:56;9.80;1.00
9824;DHT22;4951;50.778;7.196;2023-12-29T00:50:43;9.80;1.00
9824;DHT22;4951;50.778;7.196;2023-12-29T00:53:59;9.80;1.00
9824;DHT22;4951;50.778;7.196;2023-12-29T00:56:33;9.80;1.00
9824;DHT22;4951;50.778;7.196;2023-12-29T00:59:26;9.80;1.00
9824;DHT22;4951;50.778;7.196;2023-12-29T01:02:42;9.80;1.00
9824;DHT22;4951;50.778;7.196;2023-12-29T01:05:40;9.80;1.00
9824;DHT22;4951;50.778;7.196;2023-12-29T01:08:19;9.80;1.00
9824;DHT22;4951;50.778;7.196;2023-12-29T01:11:19;9.80;1.00
9824;DHT22;4951;50.778;7.196;2023-12-29T01:14:08;9.80;1.00
9824;DHT22;4951;50.778;7.196;2023-12-29T01:17:11;9.80;1.00
9824;DHT22;4951;50.778;7.196;2023-12-29T01:20:11;9.90;1.00
9824;DHT22;4951;50.778;7.196;2023-12-29T01:22:56;9.90;1.00
9824;DHT22;4951;50.778;7.196;2023-12-29T01:25:44;9.90;1.00
9824;DHT22;4951;50.778;7.196;2023-12-29T01:28:27;9.90;1.00
9824;DHT22;4951;50.778;7.196;2023-12-29T01:31:53;10.00;1.00
9824;DHT22;4951;50.778;7.196;2023-12-29T01:34:42;10.00;99.90
9824;DHT22;4951;50.778;7.196;2023-12-29T01:38:02;10.00;99.90
9824;DHT22;4951;50.778;7.196;2023-12-29T01:40:50;10.10;99.90
9824;DHT22;4951;50.778;7.196;2023-12-29T01:46:33;10.10;99.90
9824;DHT22;4951;50.778;7.196;2023-12-29T01:49:03;10.10;99.90
9824;DHT22;4951;50.778;7.196;2023-12-29T01:52:08;10.10;99.90
9824;DHT22;4951;50.778;7.196;2023-12-29T01:54:57;10.20;99.90
9824;DHT22;4951;50.778;7.196;2023-12-29T01:57:49;10.20;94.00
9824;DHT22;4951;50.778;7.196;2023-12-29T02:03:50;10.20;24.60
9824;DHT22;4951;50.778;7.196;2023-12-29T02:06:41;10.20;1.00
9824;DHT22;4951;50.778;7.196;2023-12-29T02:09:33;10.20;1.00
9824;DHT22;4951;50.778;7.196;2023-12-29T02:12:03;10.20;1.00
9824;DHT22;4951;50.778;7.196;2023-12-29T02:14:51;10.30;1.00
9824;DHT22;4951;50.778;7.196;2023-12-29T02:17:53;10.30;1.00
9824;DHT22;4951;50.778;7.196;2023-12-29T02:20:34;10.30;1.00
9824;DHT22;4951;50.778;7.196;2023-12-29T02:23:19;10.40;1.00
9824;DHT22;4951;50.778;7.196;2023-12-29T02:26:20;10.40;1.00
9824;DHT22;4951;50.778;7.196;2023-12-29T02:29:15;10.40;1.00
9824;DHT22;4951;50.778;7.196;2023-12-29T02:32:22;10.40;1.00
9824;DHT22;4951;50.778;7.196;2023-12-29T02:34:56;10.40;1.00
9824;DHT22;4951;50.778;7.196;2023-12-29T02:37:32;10.50;1.00
9824;DHT22;4951;50.778;7.196;2023-12-29T02:40:00;10.50;1.00
9824;DHT22;4951;50.778;7.196;2023-12-29T02:42:48;10.50;1.00
9824;DHT22;4951;50.778;7.196;2023-12-29T02:45:28;10.60;1.00
9824;DHT22;4951;50.778;7.196;2023-12-29T02:48:15;10.60;1.00
9824;DHT22;4951;50.778;7.196;2023-12-29T02:50:52;10.60;1.00
9824;DHT22;4951;50.778;7.196;2023-12-29T02:53:44;10.60;1.00
9824;DHT22;4951;50.778;7.196;2023-12-29T02:56:35;10.60;1.00
9824;DHT22;4951;50.778;7.196;2023-12-29T03:02:51;10.60;1.00
9824;DHT22;4951;50.778;7.196;2023-12-29T03:06:02;10.60;99.90
9824;DHT22;4951;50.778;7.196;2023-12-29T03:08:50;10.60;99.90
9824;DHT22;4951;50.778;7.196;2023-12-29T03:11:33;10.70;99.90
9824;DHT22;4951;50.778;7.196;2023-12-29T03:14:19;10.70;99.90
9824;DHT22;4951;50.778;7.196;2023-12-29T03:17:10;10.80;99.90
9824;DHT22;4951;50.778;7.196;2023-12-29T03:20:15;10.80;99.90
9824;DHT22;4951;50.778;7.196;2023-12-29T03:23:11;10.80;99.90
9824;DHT22;4951;50.778;7.196;2023-12-29T03:26:26;10.80;99.90
9824;DHT22;4951;50.778;7.196;2023-12-29T03:29:43;10.80;99.90
9824;DHT22;4951;50.778;7.196;2023-12-29T03:32:24;10.80;99.90
9824;DHT22;4951;50.778;7.196;2023-12-29T03:35:09;10.70;99.90
9824;DHT22;4951;50.778;7.196;2023-12-29T03:38:10;10.70;99.90
9824;DHT22;4951;50.778;7.196;2023-12-29T03:41:07;10.80;99.90
9824;DHT22;4951;50.778;7.196;2023-12-29T03:44:13;10.80;99.90
9824;DHT22;4951;50.778;7.196;2023-12-29T03:47:11;10.90;96.00
9824;DHT22;4951;50.778;7.196;2023-12-29T03:50:06;10.90;1.00
9824;DHT22;4951;50.778;7.196;2023-12-29T03:56:48;10.90;1.00
9824;DHT22;4951;50.778;7.196;2023-12-29T03:59:52;10.90;1.00
9824;DHT22;4951;50.778;7.196;2023-12-29T04:02:46;10.90;1.00
9824;DHT22;4951;50.778;7.196;2023-12-29T04:05:53;10.90;1.00
9824;DHT22;4951;50.778;7.196;2023-12-29T04:08:58;11.00;1.00
9824;DHT22;4951;50.778;7.196;2023-12-29T04:11:55;11.00;1.00
9824;DHT22;4951;50.778;7.196;2023-12-29T04:14:30;11.00;1.00
9824;DHT22;4951;50.778;7.196;2023-12-29T04:17:30;11.00;1.00
9824;DHT22;4951;50.778;7.196;2023-12-29T04:20:37;11.00;1.00
9824;DHT22;4951;50.778;7.196;2023-12-29T04:23:20;11.00;1.00
9824;DHT22;4951;50.778;7.196;2023-12-29T04:26:21;11.00;60.40
9824;DHT22;4951;50.778;7.196;2023-12-29T04:29:05;10.90;76.70
9824;DHT22;4951;50.778;7.196;2023-12-29T04:32:06;11.00;99.90
9824;DHT22;4951;50.778;7.196;2023-12-29T04:34:34;10.90;99.90
9824;DHT22;4951;50.778;7.196;2023-12-29T04:37:04;10.90;99.90
9824;DHT22;4951;50.778;7.196;2023-12-29T04:39:49;10.90;99.90
9824;DHT22;4951;50.778;7.196;2023-12-29T04:43:02;10.90;99.90
9824;DHT22;4951;50.778;7.196;2023-12-29T04:45:43;10.90;99.90
9824;DHT22;4951;50.778;7.196;2023-12-29T04:49:09;10.90;99.90
9824;DHT22;4951;50.778;7.196;2023-12-29T04:51:54;10.90;99.90
9824;DHT22;4951;50.778;7.196;2023-12-29T04:54:39;10.90;99.90
9824;DHT22;4951;50.778;7.196;2023-12-29T04:57:12;10.90;99.90
9824;DHT22;4951;50.778;7.196;2023-12-29T04:59:55;10.90;99.90
9824;DHT22;4951;50.778;7.196;2023-12-29T05:02:51;10.90;99.90
9824;DHT22;4951;50.778;7.196;2023-12-29T05:05:27;10.90;99.90
9824;DHT22;4951;50.778;7.196;2023-12-29T05:08:33;10.90;99.90
9824;DHT22;4951;50.778;7.196;2023-12-29T05:11:19;10.80;1.00
9824;DHT22;4951;50.778;7.196;2023-12-29T05:14:02;10.80;1.00
9824;DHT22;4951;50.778;7.196;2023-12-29T05:16:46;10.80;1.00
9824;DHT22;4951;50.778;7.196;2023-12-29T05:19:18;10.80;1.00
9824;DHT22;4951;50.778;7.196;2023-12-29T05:22:06;10.80;1.00
9824;DHT22;4951;50.778;7.196;2023-12-29T05:24:50;10.70;1.00
9824;DHT22;4951;50.778;7.196;2023-12-29T05:27:22;10.80;1.00
9824;DHT22;4951;50.778;7.196;2023-12-29T05:30:08;10.80;58.90
9824;DHT22;4951;50.778;7.196;2023-12-29T05:32:42;10.70;99.90
9824;DHT22;4951;50.778;7.196;2023-12-29T05:35:39;10.80;99.90
9824;DHT22;4951;50.778;7.196;2023-12-29T05:38:20;10.70;99.90
9824;DHT22;4951;50.778;7.196;2023-12-29T05:40:59;10.70;1.00
9824;DHT22;4951;50.778;7.196;2023-12-29T05:43:40;10.70;1.00
9824;DHT22;4951;50.778;7.196;2023-12-29T05:46:14;10.70;1.00
9824;DHT22;4951;50.778;7.196;2023-12-29T05:48:46;10.70;1.00
9824;DHT22;4951;50.778;7.196;2023-12-29T05:51:18;10.70;1.00
9824;DHT22;4951;50.778;7.196;2023-12-29T05:53:49;10.60;1.00
9824;DHT22;4951;50.778;7.196;2023-12-29T05:56:25;10.60;72.20
9824;DHT22;4951;50.778;7.196;2023-12-29T05:59:01;10.60;99.90
9824;DHT22;4951;50.778;7.196;2023-12-29T06:01:41;10.60;99.90
9824;DHT22;4951;50.778;7.196;2023-12-29T06:04:19;10.60;99.90
9824;DHT22;4951;50.778;7.196;2023-12-29T06:06:55;10.60;99.90
9824;DHT22;4951;50.778;7.196;2023-12-29T06:09:32;10.60;1.00
9824;DHT22;4951;50.778;7.196;2023-12-29T06:12:14;10.60;1.00
9824;DHT22;4951;50.778;7.196;2023-12-29T06:14:47;10.60;1.00
9824;DHT22;4951;50.778;7.196;2023-12-29T06:17:41;10.50;1.00
9824;DHT22;4951;50.778;7.196;2023-12-29T06:20:18;10.50;1.00
9824;DHT22;4951;50.778;7.196;2023-12-29T06:22:54;10.60;1.00
9824;DHT22;4951;50.778;7.196;2023-12-29T06:25:28;10.50;1.00
9824;DHT22;4951;50.778;7.196;2023-12-29T06:28:05;10.50;1.00
9824;DHT22;4951;50.778;7.196;2023-12-29T06:30:39;10.50;1.00
9824;DHT22;4951;50.778;7.196;2023-12-29T06:33:28;10.50;1.00
9824;DHT22;4951;50.778;7.196;2023-12-29T06:36:22;10.50;9.20
9824;DHT22;4951;50.778;7.196;2023-12-29T06:38:54;10.50;99.90
9824;DHT22;4951;50.778;7.196;2023-12-29T06:41:34;10.50;99.90
9824;DHT22;4951;50.778;7.196;2023-12-29T06:44:05;10.50;99.90
9824;DHT22;4951;50.778;7.196;2023-12-29T06:46:37;10.50;99.90
9824;DHT22;4951;50.778;7.196;2023-12-29T06:49:34;10.50;99.90
9824;DHT22;4951;50.778;7.196;2023-12-29T06:52:07;10.50;99.90
9824;DHT22;4951;50.778;7.196;2023-12-29T06:54:35;10.60;99.90
9824;DHT22;4951;50.778;7.196;2023-12-29T06:57:04;10.60;99.90
9824;DHT22;4951;50.778;7.196;2023-12-29T06:59:44;10.60;99.90
9824;DHT22;4951;50.778;7.196;2023-12-29T07:02:14;10.50;99.90
9824;DHT22;4951;50.778;7.196;2023-12-29T07:04:44;10.50;99.90
9824;DHT22;4951;50.778;7.196;2023-12-29T07:07:17;10.50;99.90
9824;DHT22;4951;50.778;7.196;2023-12-29T07:09:47;10.50;99.90
9824;DHT22;4951;50.778;7.196;2023-12-29T07:12:16;10.50;99.90
9824;DHT22;4951;50.778;7.196;2023-12-29T07:14:49;10.50;99.90
9824;DHT22;4951;50.778;7.196;2023-12-29T07:17:23;10.50;99.90
9824;DHT22;4951;50.778;7.196;2023-12-29T07:20:10;10.50;99.90
9824;DHT22;4951;50.778;7.196;2023-12-29T07:22:45;10.50;99.90
9824;DHT22;4951;50.778;7.196;2023-12-29T07:25:14;10.50;99.90
9824;DHT22;4951;50.778;7.196;2023-12-29T07:27:46;10.50;99.90
9824;DHT22;4951;50.778;7.196;2023-12-29T07:30:42;10.50;99.90
9824;DHT22;4951;50.778;7.196;2023-12-29T07:33:19;10.50;99.90
9824;DHT22;4951;50.778;7.196;2023-12-29T07:36:26;10.50;99.90
9824;DHT22;4951;50.778;7.196;2023-12-29T07:38:59;10.50;99.90
9824;DHT22;4951;50.778;7.196;2023-12-29T07:41:40;10.50;1.00
9824;DHT22;4951;50.778;7.196;2023-12-29T07:44:16;10.50;1.00
9824;DHT22;4951;50.778;7.196;2023-12-29T07:47:04;10.50;1.00
9824;DHT22;4951;50.778;7.196;2023-12-29T07:49:45;10.50;1.00
9824;DHT22;4951;50.778;7.196;2023-12-29T07:52:54;10.50;1.00
9824;DHT22;4951;50.778;7.196;2023-12-29T07:55:52;10.50;1.00
9824;DHT22;4951;50.778;7.196;2023-12-29T07:58:29;10.50;1.00
9824;DHT22;4951;50.778;7.196;2023-12-29T08:01:38;10.50;1.00
9824;DHT22;4951;50.778;7.196;2023-12-29T08:04:14;10.50;99.90
9824;DHT22;4951;50.778;7.196;2023-12-29T08:06:51;10.50;99.90
9824;DHT22;4951;50.778;7.196;2023-12-29T08:09:37;10.50;99.90
9824;DHT22;4951;50.778;7.196;2023-12-29T08:12:46;10.50;99.90
9824;DHT22;4951;50.778;7.196;2023-12-29T08:15:36;10.50;99.90
9824;DHT22;4951;50.778;7.196;2023-12-29T08:18:19;10.50;99.90
9824;DHT22;4951;50.778;7.196;2023-12-29T08:20:56;10.60;99.90
9824;DHT22;4951;50.778;7.196;2023-12-29T08:24:01;10.60;1.00
9824;DHT22;4951;50.778;7.196;2023-12-29T08:27:00;10.60;1.00
9824;DHT22;4951;50.778;7.196;2023-12-29T08:29:49;10.60;1.00
9824;DHT22;4951;50.778;7.196;2023-12-29T08:32:27;10.70;1.00
9824;DHT22;4951;50.778;7.196;2023-12-29T08:35:39;10.70;1.00
9824;DHT22;4951;50.778;7.196;2023-12-29T08:38:14;10.70;1.00
9824;DHT22;4951;50.778;7.196;2023-12-29T08:40:54;10.70;1.00
9824;DHT22;4951;50.778;7.196;2023-12-29T08:43:26;10.70;1.00
9824;DHT22;4951;50.778;7.196;2023-12-29T08:46:00;10.80;1.00
9824;DHT22;4951;50.778;7.196;2023-12-29T08:48:57;10.80;99.90
9824;DHT22;4951;50.778;7.196;2023-12-29T08:52:14;10.80;99.90
9824;DHT22;4951;50.778;7.196;2023-12-29T08:56:48;10.90;23.50
9824;DHT22;4951;50.778;7.196;2023-12-29T08:59:33;10.90;1.00
9824;DHT22;4951;50.778;7.196;2023-12-29T09:02:43;11.00;1.00
9824;DHT22;4951;50.778;7.196;2023-12-29T09:05:33;11.00;1.00
9824;DHT22;4951;50.778;7.196;2023-12-29T09:08:26;11.00;1.00
9824;DHT22;4951;50.778;7.196;2023-12-29T09:11:45;11.00;1.00
9824;DHT22;4951;50.778;7.196;2023-12-29T09:14:46;11.10;1.00
9824;DHT22;4951;50.778;7.196;2023-12-29T09:21:17;11.20;1.00
9824;DHT22;4951;50.778;7.196;2023-12-29T09:24:54;11.20;1.00
9824;DHT22;4951;50.778;7.196;2023-12-29T09:28:42;11.30;99.90
9824;DHT22;4951;50.778;7.196;2023-12-29T09:31:45;11.40;1.00
9824;DHT22;4951;50.778;7.196;2023-12-29T09:34:44;11.50;1.00
9824;DHT22;4951;50.778;7.196;2023-12-29T09:37:28;11.50;1.00
9824;DHT22;4951;50.778;7.196;2023-12-29T09:40:01;11.60;1.00
9824;DHT22;4951;50.778;7.196;2023-12-29T09:42:48;11.60;1.00
9824;DHT22;4951;50.778;7.196;2023-12-29T09:45:26;11.50;93.90
9824;DHT22;4951;50.778;7.196;2023-12-29T09:48:02;11.30;1.00
9824;DHT22;4951;50.778;7.196;2023-12-29T09:51:21;11.20;1.00
9824;DHT22;4951;50.778;7.196;2023-12-29T09:54:41;11.20;99.90
9824;DHT22;4951;50.778;7.196;2023-12-29T09:57:58;11.20;17.60
9824;DHT22;4951;50.778;7.196;2023-12-29T10:00:45;11.20;1.00
9824;DHT22;4951;50.778;7.196;2023-12-29T10:04:11;11.30;1.00
9824;DHT22;4951;50.778;7.196;2023-12-29T10:07:07;11.30;99.90
9824;DHT22;4951;50.778;7.196;2023-12-29T10:10:31;11.30;61.70
9824;DHT22;4951;50.778;7.196;2023-12-29T10:13:13;11.30;99.90
9824;DHT22;4951;50.778;7.196;2023-12-29T10:16:18;11.40;1.00
9824;DHT22;4951;50.778;7.196;2023-12-29T10:20:05;11.50;1.00
9824;DHT22;4951;50.778;7.196;2023-12-29T10:23:54;11.50;99.90
9824;DHT22;4951;50.778;7.196;2023-12-29T10:30:40;11.50;99.90
9824;DHT22;4951;50.778;7.196;2023-12-29T10:34:19;11.50;99.90
9824;DHT22;4951;50.778;7.196;2023-12-29T10:36:58;11.50;99.90
9824;DHT22;4951;50.778;7.196;2023-12-29T10:39:55;11.50;99.90
9824;DHT22;4951;50.778;7.196;2023-12-29T10:42:47;11.60;99.90
9824;DHT22;4951;50.778;7.196;2023-12-29T11:10:05;12.10;1.00
9824;DHT22;4951;50.778;7.196;2023-12-29T11:13:42;12.10;1.00
9824;DHT22;4951;50.778;7.196;2023-12-29T11:16:03;12.10;1.00
9824;DHT22;4951;50.778;7.196;2023-12-29T11:19:27;12.10;1.00
9824;DHT22;4951;50.778;7.196;2023-12-29T11:26:33;12.20;1.00
9824;DHT22;4951;50.778;7.196;2023-12-29T11:30:12;12.20;1.00
9824;DHT22;4951;50.778;7.196;2023-12-29T11:33:48;12.30;1.00
9824;DHT22;4951;50.778;7.196;2023-12-29T11:38:03;12.30;1.00
9824;DHT22;4951;50.778;7.196;2023-12-29T11:40:57;12.30;1.00
9824;DHT22;4951;50.778;7.196;2023-12-29T11:44:21;12.30;99.90
9824;DHT22;4951;50.778;7.196;2023-12-29T11:47:42;12.30;99.90
9824;DHT22;4951;50.778;7.196;2023-12-29T11:50:40;12.30;99.90
9824;DHT22;4951;50.778;7.196;2023-12-29T11:54:21;12.30;99.90
9824;DHT22;4951;50.778;7.196;2023-12-29T11:57:31;12.30;99.90
9824;DHT22;4951;50.778;7.196;2023-12-29T12:03:54;12.30;99.90
9824;DHT22;4951;50.778;7.196;2023-12-29T12:09:51;12.30;99.90
9824;DHT22;4951;50.778;7.196;2023-12-29T12:13:11;12.30;99.90
9824;DHT22;4951;50.778;7.196;2023-12-29T12:15:47;12.40;99.90
9824;DHT22;4951;50.778;7.196;2023-12-29T12:19:14;12.40;99.90
9824;DHT22;4951;50.778;7.196;2023-12-29T12:21:55;12.50;99.90
9824;DHT22;4951;50.778;7.196;2023-12-29T12:25:07;12.60;99.90
9824;DHT22;4951;50.778;7.196;2023-12-29T12:27:38;12.60;91.50
9824;DHT22;4951;50.778;7.196;2023-12-29T12:31:07;12.60;16.70
9824;DHT22;4951;50.778;7.196;2023-12-29T12:34:17;12.60;1.00
9824;DHT22;4951;50.778;7.196;2023-12-29T12:37:02;12.70;1.00
9824;DHT22;4951;50.778;7.196;2023-12-29T12:44:49;12.70;1.00
9824;DHT22;4951;50.778;7.196;2023-12-29T12:48:19;12.60;1.00
9824;DHT22;4951;50.778;7.196;2023-12-29T12:54:30;12.60;1.00
9824;DHT22;4951;50.778;7.196;2023-12-29T12:57:07;12.60;1.00
9824;DHT22;4951;50.778;7.196;2023-12-29T12:59:50;12.50;1.00
9824;DHT22;4951;50.778;7.196;2023-12-29T13:02:51;12.50;1.00
9824;DHT22;4951;50.778;7.196;2023-12-29T13:05:21;12.50;1.00
9824;DHT22;4951;50.778;7.196;2023-12-29T13:08:01;12.40;1.00
9824;DHT22;4951;50.778;7.196;2023-12-29T13:10:40;12.40;1.00
9824;DHT22;4951;50.778;7.196;2023-12-29T13:17:31;12.40;96.20
9824;DHT22;4951;50.778;7.196;2023-12-29T13:25:08;12.30;99.90
9824;DHT22;4951;50.778;7.196;2023-12-29T13:27:23;12.30;99.90
9824;DHT22;4951;50.778;7.196;2023-12-29T13:30:08;12.30;99.90
9824;DHT22;4951;50.778;7.196;2023-12-29T13:32:43;12.20;99.90
9824;DHT22;4951;50.778;7.196;2023-12-29T13:35:33;12.30;99.90
9824;DHT22;4951;50.778;7.196;2023-12-29T13:38:10;12.20;99.90
9824;DHT22;4951;50.778;7.196;2023-12-29T13:40:53;12.20;99.90
9824;DHT22;4951;50.778;7.196;2023-12-29T13:45:33;12.20;99.90
9824;DHT22;4951;50.778;7.196;2023-12-29T13:48:27;12.10;99.90
9824;DHT22;4951;50.778;7.196;2023-12-29T13:51:05;12.10;99.90
9824;DHT22;4951;50.778;7.196;2023-12-29T13:55:06;12.00;1.00
9824;DHT22;4951;50.778;7.196;2023-12-29T13:57:55;12.00;1.00
9824;DHT22;4951;50.778;7.196;2023-12-29T14:01:57;12.00;1.00
9824;DHT22;4951;50.778;7.196;2023-12-29T14:04:19;12.00;1.00
9824;DHT22;4951;50.778;7.196;2023-12-29T14:08:33;11.90;1.00
9824;DHT22;4951;50.778;7.196;2023-12-29T14:14:29;11.90;99.90
9824;DHT22;4951;50.778;7.196;2023-12-29T14:24:35;11.40;1.00
9824;DHT22;4951;50.778;7.196;2023-12-29T14:27:19;11.20;1.00
9824;DHT22;4951;50.778;7.196;2023-12-29T14:33:37;11.00;1.00
9824;DHT22;4951;50.778;7.196;2023-12-29T14:36:51;10.90;25.10
9824;DHT22;4951;50.778;7.196;2023-12-29T14:39:22;10.90;99.90
9824;DHT22;4951;50.778;7.196;2023-12-29T14:42:06;11.00;99.90
9824;DHT22;4951;50.778;7.196;2023-12-29T14:45:45;11.00;99.90
9824;DHT22;4951;50.778;7.196;2023-12-29T14:49:19;11.00;99.90
9824;DHT22;4951;50.778;7.196;2023-12-29T14:55:45;11.10;28.70
9824;DHT22;4951;50.778;7.196;2023-12-29T14:58:34;11.10;1.00
9824;DHT22;4951;50.778;7.196;2023-12-29T15:01:07;11.10;1.00
9824;DHT22;4951;50.778;7.196;2023-12-29T15:03:55;11.10;1.00
9824;DHT22;4951;50.778;7.196;2023-12-29T15:08:02;11.10;1.00
9824;DHT22;4951;50.778;7.196;2023-12-29T15:10:50;11.10;88.20
9824;DHT22;4951;50.778;7.196;2023-12-29T15:17:28;11.20;20.50
9824;DHT22;4951;50.778;7.196;2023-12-29T15:20:11;11.20;99.90
9824;DHT22;4951;50.778;7.196;2023-12-29T15:23:18;11.20;70.40
9824;DHT22;4951;50.778;7.196;2023-12-29T15:26:06;11.20;3.10
9824;DHT22;4951;50.778;7.196;2023-12-29T15:28:56;11.10;99.90
9824;DHT22;4951;50.778;7.196;2023-12-29T15:36:38;11.10;1.00
9824;DHT22;4951;50.778;7.196;2023-12-29T15:40:01;11.00;1.00
9824;DHT22;4951;50.778;7.196;2023-12-29T15:42:56;11.00;1.00
9824;DHT22;4951;50.778;7.196;2023-12-29T15:45:45;11.00;1.00
9824;DHT22;4951;50.778;7.196;2023-12-29T15:48:34;11.00;1.00
9824;DHT22;4951;50.778;7.196;2023-12-29T15:54:46;11.00;1.00
9824;DHT22;4951;50.778;7.196;2023-12-29T15:58:15;11.00;1.00
9824;DHT22;4951;50.778;7.196;2023-12-29T16:04:56;11.00;1.00
9824;DHT22;4951;50.778;7.196;2023-12-29T16:08:06;11.00;1.00
9824;DHT22;4951;50.778;7.196;2023-12-29T16:14:35;11.00;1.00
9824;DHT22;4951;50.778;7.196;2023-12-29T16:17:53;11.00;1.00
9824;DHT22;4951;50.778;7.196;2023-12-29T16:21:52;11.00;99.90
9824;DHT22;4951;50.778;7.196;2023-12-29T16:25:01;11.00;99.90
9824;DHT22;4951;50.778;7.196;2023-12-29T16:27:57;11.00;99.90
9824;DHT22;4951;50.778;7.196;2023-12-29T16:30:41;11.00;99.90
9824;DHT22;4951;50.778;7.196;2023-12-29T16:34:02;11.00;99.90
9824;DHT22;4951;50.778;7.196;2023-12-29T16:37:53;11.00;99.90
9824;DHT22;4951;50.778;7.196;2023-12-29T16:41:50;10.90;99.90
9824;DHT22;4951;50.778;7.196;2023-12-29T16:46:05;10.90;99.90
9824;DHT22;4951;50.778;7.196;2023-12-29T16:48:38;10.90;99.90
9824;DHT22;4951;50.778;7.196;2023-12-29T16:51:08;10.90;99.90
9824;DHT22;4951;50.778;7.196;2023-12-29T16:54:10;10.90;99.90
9824;DHT22;4951;50.778;7.196;2023-12-29T16:56:53;10.90;99.90
9824;DHT22;4951;50.778;7.196;2023-12-29T17:00:41;10.90;99.90
9824;DHT22;4951;50.778;7.196;2023-12-29T17:07:49;10.90;99.90
9824;DHT22;4951;50.778;7.196;2023-12-29T17:11:01;10.90;99.90
9824;DHT22;4951;50.778;7.196;2023-12-29T17:15:09;11.00;99.40
9824;DHT22;4951;50.778;7.196;2023-12-29T17:18:09;11.00;3.80
9824;DHT22;4951;50.778;7.196;2023-12-29T17:20:47;11.00;1.00
9824;DHT22;4951;50.778;7.196;2023-12-29T17:23:56;11.00;1.00
9824;DHT22;4951;50.778;7.196;2023-12-29T17:26:40;10.90;76.30
9824;DHT22;4951;50.778;7.196;2023-12-29T17:29:29;10.90;99.90
9824;DHT22;4951;50.778;7.196;2023-12-29T17:32:17;10.90;99.90
9824;DHT22;4951;50.778;7.196;2023-12-29T17:35:35;10.90;99.90
9824;DHT22;4951;50.778;7.196;2023-12-29T17:38:50;10.90;1.00
9824;DHT22;4951;50.778;7.196;2023-12-29T17:45:31;10.70;1.00
9824;DHT22;4951;50.778;7.196;2023-12-29T17:48:01;10.70;99.90
9824;DHT22;4951;50.778;7.196;2023-12-29T17:50:37;10.70;99.90
9824;DHT22;4951;50.778;7.196;2023-12-29T17:53:19;10.70;99.90
9824;DHT22;4951;50.778;7.196;2023-12-29T17:56:16;10.70;99.90
9824;DHT22;4951;50.778;7.196;2023-12-29T17:58:57;10.70;99.90
9824;DHT22;4951;50.778;7.196;2023-12-29T18:01:33;10.70;1.00
9824;DHT22;4951;50.778;7.196;2023-12-29T18:04:06;10.80;1.00
9824;DHT22;4951;50.778;7.196;2023-12-29T18:06:42;10.80;1.00
9824;DHT22;4951;50.778;7.196;2023-12-29T18:09:19;10.80;99.90
9824;DHT22;4951;50.778;7.196;2023-12-29T18:12:09;10.90;24.60
9824;DHT22;4951;50.778;7.196;2023-12-29T18:15:08;10.90;1.00
9824;DHT22;4951;50.778;7.196;2023-12-29T18:17:42;10.90;99.90
9824;DHT22;4951;50.778;7.196;2023-12-29T18:20:36;10.90;1.00
9824;DHT22;4951;50.778;7.196;2023-12-29T18:23:14;10.90;1.00
9824;DHT22;4951;50.778;7.196;2023-12-29T18:26:11;10.90;1.00
9824;DHT22;4951;50.778;7.196;2023-12-29T18:29:46;10.90;1.00
9824;DHT22;4951;50.778;7.196;2023-12-29T18:36:20;11.10;99.90
9824;DHT22;4951;50.778;7.196;2023-12-29T18:39:06;11.20;1.00
9824;DHT22;4951;50.778;7.196;2023-12-29T18:42:07;11.20;99.90
9824;DHT22;4951;50.778;7.196;2023-12-29T18:44:39;11.20;99.90
9824;DHT22;4951;50.778;7.196;2023-12-29T18:47:48;11.10;1.00
9824;DHT22;4951;50.778;7.196;2023-12-29T18:54:56;11.00;1.00
9824;DHT22;4951;50.778;7.196;2023-12-29T18:57:43;11.00;1.00
9824;DHT22;4951;50.778;7.196;2023-12-29T19:00:39;11.00;1.00
9824;DHT22;4951;50.778;7.196;2023-12-29T19:03:47;11.00;26.30
9824;DHT22;4951;50.778;7.196;2023-12-29T19:06:59;11.00;99.90
9824;DHT22;4951;50.778;7.196;2023-12-29T19:10:13;11.00;99.90
9824;DHT22;4951;50.778;7.196;2023-12-29T19:12:42;11.00;1.00
9824;DHT22;4951;50.778;7.196;2023-12-29T19:16:17;11.00;1.00
9824;DHT22;4951;50.778;7.196;2023-12-29T19:19:16;11.00;1.00
9824;DHT22;4951;50.778;7.196;2023-12-29T19:22:14;11.10;1.00
9824;DHT22;4951;50.778;7.196;2023-12-29T19:25:24;11.00;1.00
9824;DHT22;4951;50.778;7.196;2023-12-29T19:28:27;11.00;1.00
9824;DHT22;4951;50.778;7.196;2023-12-29T19:31:11;11.10;1.00
9824;DHT22;4951;50.778;7.196;2023-12-29T19:34:41;11.10;1.00
9824;DHT22;4951;50.778;7.196;2023-12-29T19:37:18;11.10;1.00
9824;DHT22;4951;50.778;7.196;2023-12-29T19:39:59;11.10;1.00
9824;DHT22;4951;50.778;7.196;2023-12-29T19:42:46;11.10;1.00
9824;DHT22;4951;50.778;7.196;2023-12-29T19:45:19;11.00;1.00
9824;DHT22;4951;50.778;7.196;2023-12-29T19:48:06;11.10;99.90
9824;DHT22;4951;50.778;7.196;2023-12-29T19:51:01;11.10;1.00
9824;DHT22;4951;50.778;7.196;2023-12-29T19:54:14;11.10;1.00
9824;DHT22;4951;50.778;7.196;2023-12-29T19:56:48;11.00;16.30
9824;DHT22;4951;50.778;7.196;2023-12-29T20:03:06;10.80;1.00
9824;DHT22;4951;50.778;7.196;2023-12-29T20:05:40;10.60;1.00
9824;DHT22;4951;50.778;7.196;2023-12-29T20:08:15;10.40;1.00
9824;DHT22;4951;50.778;7.196;2023-12-29T20:10:56;10.20;99.90
9824;DHT22;4951;50.778;7.196;2023-12-29T20:13:24;10.00;1.00
9824;DHT22;4951;50.778;7.196;2023-12-29T20:16:23;9.90;1.00
9824;DHT22;4951;50.778;7.196;2023-12-29T20:19:02;9.80;1.00
9824;DHT22;4951;50.778;7.196;2023-12-29T20:22:50;9.70;99.90
9824;DHT22;4951;50.778;7.196;2023-12-29T20:25:53;9.70;99.90
9824;DHT22;4951;50.778;7.196;2023-12-29T20:28:38;9.60;99.90
9824;DHT22;4951;50.778;7.196;2023-12-29T20:31:23;9.50;99.90
9824;DHT22;4951;50.778;7.196;2023-12-29T20:33:58;9.40;1.00
9824;DHT22;4951;50.778;7.196;2023-12-29T20:36:46;9.40;1.00
9824;DHT22;4951;50.778;7.196;2023-12-29T20:40:14;9.30;1.00
9824;DHT22;4951;50.778;7.196;2023-12-29T20:43:31;9.30;1.00
9824;DHT22;4951;50.778;7.196;2023-12-29T20:46:22;9.00;1.00
9824;DHT22;4951;50.778;7.196;2023-12-29T20:48:55;8.80;1.00
9824;DHT22;4951;50.778;7.196;2023-12-29T20:52:35;8.60;1.00
9824;DHT22;4951;50.778;7.196;2023-12-29T21:12:04;7.80;1.00
9824;DHT22;4951;50.778;7.196;2023-12-29T21:14:46;7.80;1.00
9824;DHT22;4951;50.778;7.196;2023-12-29T21:19:55;7.70;1.00
9824;DHT22;4951;50.778;7.196;2023-12-29T21:22:50;7.70;1.00
9824;DHT22;4951;50.778;7.196;2023-12-29T21:25:34;7.60;1.00
9824;DHT22;4951;50.778;7.196;2023-12-29T21:28:19;7.60;1.00
9824;DHT22;4951;50.778;7.196;2023-12-29T21:31:12;7.50;1.00
9824;DHT22;4951;50.778;7.196;2023-12-29T21:34:51;7.50;1.00
9824;DHT22;4951;50.778;7.196;2023-12-29T21:40:34;7.60;1.00
9824;DHT22;4951;50.778;7.196;2023-12-29T21:41:37;7.60;1.00
9824;DHT22;4951;50.778;7.196;2023-12-29T21:44:44;7.70;1.00